Brinkley, Kentucky
Current Conditions -  °F | °C
As of 1:15 AM on Saturday 27 Dec 2014 (Local Time) from KPBX Reporting Station
Broken Clouds Broken Clouds  
Wind Chill: 42°   Ceiling: 11000
Heat Index: 45°   Visibility: 10mi
Dew Point: 28°   Wind: 6mph
Humidity: 50%   Direction: 360°N
Pressure: 30.21"   Gusts: NA
Location:  37.3236°N, 82.9494°W
Report Text: KPBX 270615Z AUTO 36005KT 10SM BKN110 07/M02 A3021 RMK AO2 T00741025
Loading
Personal Weather Stations






























Interactive Weather Map New forecast layout! Learn more

10-Day Weather Forecast

Advertisements
Track Severe Weather on mobile